»·PEaware :: N495SF KSBA-KSFO

N495SF :: KSBA-KSFO

FLIGHT INFORMATION

Flight Status: Arrived
Operator: Privately registered:
United States
More flights under this callsign
Pilot: Scott F. (28095)
Aircraft: BEECH AIRCRAFT PREMIER
(PRM1)
More flights by this aircraft type
Origin: KSBA Santa Barbara Mun
United States
Destination: KSFO San Francisco Intl
United States
More flights between these airports :: More routes between these airports
Route: GAUCH1 MQO SERFR SERFR4
File this flight plan on PilotEdge
Remarks:
Altitude:
(Current/Filed)
24,000ft
Speed:
(Current/Filed)
300kts
Departed: 30-Jul-20 06:10 PM
Arrived: 30-Jul-20 07:03 PM
Distance/Time
Traveled:
228nm/0:53
Distance/Time
To Go:
Arrived

Flight Plot

Page will automatically refresh every two minutes.


Map Options




Map Legend


Flown Route
Filed Route
Departure Airport
Arrival Airport
Navaid (VOR, NDB)
Fix

Horizontal Profiles

Position Reports

Time Latitude Longitude Heading Altitude Ground
Speed
30-Jul-20 17:44 34.426019 -119.837438 88 17ft 0kts
30-Jul-20 17:45 34.426019 -119.837438 88 17ft 0kts
30-Jul-20 17:46 34.426019 -119.837438 88 17ft 0kts
30-Jul-20 17:47 34.426019 -119.837438 88 17ft 0kts
30-Jul-20 17:48 34.426019 -119.837438 88 17ft 0kts
30-Jul-20 17:49 34.426019 -119.837438 88 17ft 0kts
30-Jul-20 17:50 34.426019 -119.837438 88 17ft 0kts
30-Jul-20 17:51 34.426019 -119.837438 88 17ft 0kts
30-Jul-20 17:52 34.426019 -119.837438 88 17ft 0kts
30-Jul-20 17:53 34.426019 -119.837438 88 17ft 0kts
30-Jul-20 17:54 34.426019 -119.837438 88 17ft 0kts
30-Jul-20 17:55 34.426019 -119.837438 88 17ft 0kts
30-Jul-20 17:56 34.426019 -119.837438 88 17ft 0kts
30-Jul-20 17:57 34.426019 -119.837438 88 17ft 0kts
30-Jul-20 17:58 34.426019 -119.837438 88 17ft 0kts
30-Jul-20 17:59 34.426019 -119.837438 88 17ft 0kts
30-Jul-20 18:00 34.426019 -119.837438 88 17ft 0kts
30-Jul-20 18:01 34.426019 -119.837438 88 17ft 0kts
30-Jul-20 18:02 34.426019 -119.837438 88 17ft 0kts
30-Jul-20 18:03 34.425992 -119.837963 72 17ft 3kts
30-Jul-20 18:04 34.425715 -119.838196 357 17ft 0kts
30-Jul-20 18:05 34.425715 -119.838196 357 17ft 0kts
30-Jul-20 18:06 34.426740 -119.836914 88 16ft 12kts
30-Jul-20 18:07 34.427144 -119.834622 355 16ft 0kts
30-Jul-20 18:08 34.427173 -119.834625 355 16ft 4kts
30-Jul-20 18:09 34.427509 -119.852271 267 24ft 163kts
30-Jul-20 18:10 34.426303 -119.911252 266 1963ft 186kts
30-Jul-20 18:11 34.424997 -119.979694 267 3012ft 240kts
30-Jul-20 18:12 34.423299 -120.070564 267 3006ft 289kts
30-Jul-20 18:13 34.432320 -120.168106 303 3021ft 307kts
30-Jul-20 18:14 34.505569 -120.222065 332 3431ft 304kts
30-Jul-20 18:15 34.577852 -120.264944 324 4987ft 275kts
30-Jul-20 18:16 34.636877 -120.318431 317 7184ft 253kts
30-Jul-20 18:17 34.694074 -120.372343 317 8554ft 269kts
30-Jul-20 18:18 34.754130 -120.422502 324 10943ft 256kts
30-Jul-20 18:19 34.814109 -120.463537 325 13318ft 239kts
30-Jul-20 18:20 34.869593 -120.500772 324 15699ft 212kts
30-Jul-20 18:21 34.916420 -120.532142 322 18039ft 160kts
30-Jul-20 18:22 34.954963 -120.558398 322 19192ft 160kts
30-Jul-20 18:23 34.994097 -120.584837 323 20330ft 163kts
30-Jul-20 18:24 35.034382 -120.611997 323 21770ft 167kts
30-Jul-20 18:25 35.075356 -120.639619 323 23122ft 170kts
30-Jul-20 18:26 35.117879 -120.668492 322 24048ft 189kts
30-Jul-20 18:27 35.171522 -120.705067 325 24051ft 253kts
30-Jul-20 18:28 35.239986 -120.751390 326 24044ft 306kts
30-Jul-20 18:29 35.320392 -120.802002 328 24041ft 343kts
30-Jul-20 18:30 35.409035 -120.857188 328 24026ft 366kts
30-Jul-20 18:31 35.501743 -120.915073 329 23994ft 380kts
30-Jul-20 18:32 35.596915 -120.974659 329 23982ft 388kts
30-Jul-20 18:33 35.693761 -121.035456 329 23982ft 393kts
30-Jul-20 18:34 35.791686 -121.097118 328 23983ft 397kts
30-Jul-20 18:35 35.890010 -121.159198 328 23982ft 398kts
30-Jul-20 18:36 35.987820 -121.221126 328 23988ft 392kts
30-Jul-20 18:37 36.084274 -121.282375 328 24040ft 388kts
30-Jul-20 18:38 36.181345 -121.344201 328 24060ft 386kts
30-Jul-20 18:39 36.276715 -121.405090 328 24060ft 386kts
30-Jul-20 18:40 36.373239 -121.466962 329 22150ft 388kts
30-Jul-20 18:41 36.468138 -121.527906 330 19818ft 381kts
30-Jul-20 18:42 36.558983 -121.586380 330 17404ft 358kts
30-Jul-20 18:43 36.644984 -121.641894 331 14990ft 339kts
30-Jul-20 18:44 36.726565 -121.694681 331 12587ft 323kts
30-Jul-20 18:45 36.804440 -121.745080 331 10183ft 309kts
30-Jul-20 18:46 36.879049 -121.793622 330 7788ft 299kts
30-Jul-20 18:47 36.950739 -121.840331 330 6067ft 265kts
30-Jul-20 18:48 37.009171 -121.878419 330 6058ft 215kts
30-Jul-20 18:49 37.062080 -121.913061 330 6068ft 218kts
30-Jul-20 18:50 37.117994 -121.949680 330 6062ft 231kts
30-Jul-20 18:51 37.175910 -121.987654 329 6051ft 235kts
30-Jul-20 18:52 37.234049 -122.025891 329 6041ft 235kts
30-Jul-20 18:53 37.291778 -122.063909 329 6036ft 233kts
30-Jul-20 18:54 37.351827 -122.103547 330 5261ft 256kts
30-Jul-20 18:55 37.420259 -122.134310 342 4267ft 261kts
30-Jul-20 18:56 37.489304 -122.157473 343 2969ft 255kts
30-Jul-20 18:57 37.546872 -122.198217 299 1851ft 223kts
30-Jul-20 18:58 37.573982 -122.261092 300 1846ft 189kts
30-Jul-20 18:59 37.596984 -122.316692 294 1642ft 165kts
30-Jul-20 19:00 37.615557 -122.362523 298 36ft 115kts
30-Jul-20 19:01 37.625835 -122.386388 298 25ft 54kts
30-Jul-20 19:02 37.628660 -122.389569 296 21ft 9kts

Navigation Log

Ident Type
Flight plan parsing failed, navigation log unavailable